sensor_id;sensor_type;location;lat;lon;timestamp;pressure;altitude;pressure_sealevel;temperature;humidity
78773;BME280;68111;44.728;11.290;2023-11-21T09:02:26;100760.59;;;15.70;52.67
78773;BME280;68111;44.728;11.290;2023-11-21T09:04:53;100769.50;;;15.69;52.74
78773;BME280;68111;44.728;11.290;2023-11-21T09:07:20;100765.97;;;15.68;52.96
78773;BME280;68111;44.728;11.290;2023-11-21T09:09:47;100764.16;;;15.71;53.02
78773;BME280;68111;44.728;11.290;2023-11-21T09:12:15;100753.50;;;15.71;53.01
78773;BME280;68111;44.728;11.290;2023-11-21T09:14:43;100761.41;;;15.75;52.97
78773;BME280;68111;44.728;11.290;2023-11-21T09:17:10;100759.59;;;15.77;52.97
78773;BME280;68111;44.728;11.290;2023-11-21T09:19:38;100764.78;;;15.83;52.92
78773;BME280;68111;44.728;11.290;2023-11-21T09:22:05;100769.09;;;15.90;52.91
78773;BME280;68111;44.728;11.290;2023-11-21T09:24:33;100773.47;;;15.94;52.80
78773;BME280;68111;44.728;11.290;2023-11-21T09:27:38;100776.91;;;15.99;52.85
78773;BME280;68111;44.728;11.290;2023-11-21T09:30:06;100777.75;;;16.02;52.87
78773;BME280;68111;44.728;11.290;2023-11-21T09:32:37;100778.66;;;16.02;52.68
78773;BME280;68111;44.728;11.290;2023-11-21T09:35:05;100776.84;;;16.03;52.66
78773;BME280;68111;44.728;11.290;2023-11-21T09:37:32;100786.66;;;16.02;52.53
78773;BME280;68111;44.728;11.290;2023-11-21T09:39:59;100787.56;;;16.01;52.61
78773;BME280;68111;44.728;11.290;2023-11-21T09:42:30;100784.00;;;16.00;52.85
78773;BME280;68111;44.728;11.290;2023-11-21T09:45:28;100781.28;;;16.04;52.95
78773;BME280;68111;44.728;11.290;2023-11-21T09:47:58;100792.75;;;16.07;52.78
78773;BME280;68111;44.728;11.290;2023-11-21T09:50:25;100785.69;;;16.06;52.72
78773;BME280;68111;44.728;11.290;2023-11-21T09:55:46;100777.09;;;15.90;52.86
78773;BME280;68111;44.728;11.290;2023-11-21T09:58:14;100778.97;;;15.85;53.05
78773;BME280;68111;44.728;11.290;2023-11-21T10:00:46;100770.16;;;15.82;53.15
78773;BME280;68111;44.728;11.290;2023-11-21T10:03:14;100769.31;;;15.80;52.96
78773;BME280;68111;44.728;11.290;2023-11-21T10:05:43;100763.97;;;15.80;53.06
78773;BME280;68111;44.728;11.290;2023-11-21T10:08:12;100766.66;;;15.78;53.25
78773;BME280;68111;44.728;11.290;2023-11-21T10:10:43;100759.59;;;15.77;53.31
78773;BME280;68111;44.728;11.290;2023-11-21T10:13:15;100754.25;;;15.77;53.37
78773;BME280;68111;44.728;11.290;2023-11-21T10:15:49;100741.84;;;15.76;53.69
78773;BME280;68111;44.728;11.290;2023-11-21T10:18:17;100741.84;;;15.76;53.45
78773;BME280;68111;44.728;11.290;2023-11-21T10:20:44;100735.63;;;15.76;53.31
78773;BME280;68111;44.728;11.290;2023-11-21T10:23:38;100728.53;;;15.75;53.35
78773;BME280;68111;44.728;11.290;2023-11-21T10:26:06;100719.63;;;15.76;53.28
78773;BME280;68111;44.728;11.290;2023-11-21T10:28:59;100713.34;;;15.78;53.37
78773;BME280;68111;44.728;11.290;2023-11-21T10:31:27;100702.72;;;15.77;53.58
78773;BME280;68111;44.728;11.290;2023-11-21T10:33:54;100715.13;;;15.79;53.85
78773;BME280;68111;44.728;11.290;2023-11-21T10:36:28;100718.59;;;15.83;53.94
78773;BME280;68111;44.728;11.290;2023-11-21T10:38:55;100720.31;;;15.85;53.85
78773;BME280;68111;44.728;11.290;2023-11-21T10:41:23;100720.25;;;15.88;53.75
78773;BME280;68111;44.728;11.290;2023-11-21T10:43:55;100718.44;;;15.90;53.70
78773;BME280;68111;44.728;11.290;2023-11-21T10:46:22;100723.75;;;15.92;53.80
78773;BME280;68111;44.728;11.290;2023-11-21T10:49:10;100718.44;;;15.90;53.83
78773;BME280;68111;44.728;11.290;2023-11-21T10:51:43;100731.81;;;15.89;53.73
78773;BME280;68111;44.728;11.290;2023-11-21T10:54:10;100740.75;;;15.86;53.85
78773;BME280;68111;44.728;11.290;2023-11-21T10:56:39;100738.06;;;15.86;54.24
78773;BME280;68111;44.728;11.290;2023-11-21T10:59:10;100736.31;;;15.85;54.11
78773;BME280;68111;44.728;11.290;2023-11-21T11:01:45;100741.78;;;15.79;54.13
78773;BME280;68111;44.728;11.290;2023-11-21T11:04:13;100748.09;;;15.74;54.33
78773;BME280;68111;44.728;11.290;2023-11-21T11:06:43;100747.41;;;15.64;54.59
78773;BME280;68111;44.728;11.290;2023-11-21T11:09:13;100738.59;;;15.57;55.00
78773;BME280;68111;44.728;11.290;2023-11-21T11:11:40;100725.38;;;15.50;55.19
78773;BME280;68111;44.728;11.290;2023-11-21T11:14:17;100729.03;;;15.44;55.37
78773;BME280;68111;44.728;11.290;2023-11-21T11:16:46;100727.31;;;15.42;55.40
78773;BME280;68111;44.728;11.290;2023-11-21T11:19:13;100729.03;;;15.44;55.72
78773;BME280;68111;44.728;11.290;2023-11-21T11:36:05;100704.00;;;15.54;55.42
78773;BME280;68111;44.728;11.290;2023-11-21T11:38:34;100703.06;;;15.57;55.32
78773;BME280;68111;44.728;11.290;2023-11-21T11:41:03;100698.63;;;15.56;55.30
78773;BME280;68111;44.728;11.290;2023-11-21T11:43:31;100698.63;;;15.56;55.47
78773;BME280;68111;44.728;11.290;2023-11-21T11:46:18;100695.06;;;15.57;55.28
78773;BME280;68111;44.728;11.290;2023-11-21T11:49:02;100696.84;;;15.58;55.33
78773;BME280;68111;44.728;11.290;2023-11-21T11:51:29;100693.28;;;15.60;55.22
78773;BME280;68111;44.728;11.290;2023-11-21T11:53:58;100686.16;;;15.61;55.16
78773;BME280;68111;44.728;11.290;2023-11-21T11:56:29;100676.34;;;15.63;55.40
78773;BME280;68111;44.728;11.290;2023-11-21T11:59:03;100670.16;;;15.62;55.33
78773;BME280;68111;44.728;11.290;2023-11-21T12:01:35;100672.78;;;15.64;55.34
78773;BME280;68111;44.728;11.290;2023-11-21T12:06:47;100666.41;;;15.71;55.28
78773;BME280;68111;44.728;11.290;2023-11-21T12:09:21;100673.50;;;15.72;55.47
78773;BME280;68111;44.728;11.290;2023-11-21T12:11:49;100666.41;;;15.71;55.26
78773;BME280;68111;44.728;11.290;2023-11-21T12:14:17;100666.38;;;15.73;55.55
78773;BME280;68111;44.728;11.290;2023-11-21T12:16:45;100669.88;;;15.76;55.41
78773;BME280;68111;44.728;11.290;2023-11-21T12:19:12;100670.59;;;15.84;55.64
78773;BME280;68111;44.728;11.290;2023-11-21T12:21:40;100677.53;;;15.91;55.56
78773;BME280;68111;44.728;11.290;2023-11-21T12:24:11;100674.81;;;15.94;55.38
78773;BME280;68111;44.728;11.290;2023-11-21T12:26:41;100673.06;;;15.93;55.42
78773;BME280;68111;44.728;11.290;2023-11-21T12:29:09;100674.84;;;15.93;55.49
78773;BME280;68111;44.728;11.290;2023-11-21T12:31:37;100686.38;;;15.93;55.45
78773;BME280;68111;44.728;11.290;2023-11-21T12:34:04;100677.38;;;15.99;55.29
78773;BME280;68111;44.728;11.290;2023-11-21T12:36:34;100676.31;;;16.08;55.38
78773;BME280;68111;44.728;11.290;2023-11-21T12:39:02;100675.22;;;16.16;55.16
78773;BME280;68111;44.728;11.290;2023-11-21T12:41:29;100679.47;;;16.25;54.86
78773;BME280;68111;44.728;11.290;2023-11-21T12:43:57;100671.41;;;16.28;54.84
78773;BME280;68111;44.728;11.290;2023-11-21T12:46:25;100660.66;;;16.31;54.89
78773;BME280;68111;44.728;11.290;2023-11-21T12:48:56;100664.94;;;16.38;54.94
78773;BME280;68111;44.728;11.290;2023-11-21T12:51:24;100663.91;;;16.45;54.51
78773;BME280;68111;44.728;11.290;2023-11-21T12:53:51;100653.03;;;16.53;54.52
78773;BME280;68111;44.728;11.290;2023-11-21T12:56:21;100645.81;;;16.58;54.52
78773;BME280;68111;44.728;11.290;2023-11-21T12:58:53;100652.84;;;16.60;54.33
78773;BME280;68111;44.728;11.290;2023-11-21T13:01:25;100659.94;;;16.61;54.09
78773;BME280;68111;44.728;11.290;2023-11-21T13:03:57;100664.50;;;16.58;54.16
78773;BME280;68111;44.728;11.290;2023-11-21T13:06:29;100660.09;;;16.55;54.31
78773;BME280;68111;44.728;11.290;2023-11-21T13:09:05;100658.41;;;16.51;54.59
78773;BME280;68111;44.728;11.290;2023-11-21T13:11:34;100662.00;;;16.50;54.34
78773;BME280;68111;44.728;11.290;2023-11-21T13:14:02;100659.38;;;16.49;54.44
78773;BME280;68111;44.728;11.290;2023-11-21T13:16:30;100669.16;;;16.48;54.14
78773;BME280;68111;44.728;11.290;2023-11-21T13:18:58;100665.59;;;16.49;54.30
78773;BME280;68111;44.728;11.290;2023-11-21T13:21:25;100662.91;;;16.49;54.67
78773;BME280;68111;44.728;11.290;2023-11-21T13:23:51;100661.13;;;16.50;54.31
78773;BME280;68111;44.728;11.290;2023-11-21T13:26:20;100670.91;;;16.49;54.25
78773;BME280;68111;44.728;11.290;2023-11-21T13:28:48;100671.00;;;16.46;54.34
78773;BME280;68111;44.728;11.290;2023-11-21T13:31:15;100674.56;;;16.45;54.39
78773;BME280;68111;44.728;11.290;2023-11-21T13:33:52;100678.09;;;16.47;54.53
78773;BME280;68111;44.728;11.290;2023-11-21T13:36:24;100677.16;;;16.48;54.69
78773;BME280;68111;44.728;11.290;2023-11-21T13:38:52;100674.50;;;16.48;54.51
78773;BME280;68111;44.728;11.290;2023-11-21T13:41:21;100669.16;;;16.48;54.56
78773;BME280;68111;44.728;11.290;2023-11-21T13:43:55;100670.06;;;16.47;54.54
78773;BME280;68111;44.728;11.290;2023-11-21T13:46:30;100665.66;;;16.46;54.78
78773;BME280;68111;44.728;11.290;2023-11-21T13:49:04;100670.19;;;16.43;54.96
78773;BME280;68111;44.728;11.290;2023-11-21T13:51:36;100676.47;;;16.40;55.03
78773;BME280;68111;44.728;11.290;2023-11-21T13:54:14;100679.13;;;16.40;54.95
78773;BME280;68111;44.728;11.290;2023-11-21T13:56:41;100675.59;;;16.40;54.95
78773;BME280;68111;44.728;11.290;2023-11-21T13:59:12;100679.16;;;16.39;55.05
78773;BME280;68111;44.728;11.290;2023-11-21T14:01:51;100685.44;;;16.36;54.83
78773;BME280;68111;44.728;11.290;2023-11-21T14:04:27;100689.97;;;16.32;55.12
78773;BME280;68111;44.728;11.290;2023-11-21T14:06:57;100690.94;;;16.30;55.13
78773;BME280;68111;44.728;11.290;2023-11-21T14:09:27;100690.13;;;16.26;55.23
78773;BME280;68111;44.728;11.290;2023-11-21T14:12:02;100689.25;;;16.26;55.19
78773;BME280;68111;44.728;11.290;2023-11-21T14:14:33;100683.91;;;16.26;55.49
78773;BME280;68111;44.728;11.290;2023-11-21T14:17:00;100691.00;;;16.27;55.48
78773;BME280;68111;44.728;11.290;2023-11-21T14:19:33;100690.13;;;16.26;55.32
78773;BME280;68111;44.728;11.290;2023-11-21T14:22:00;100692.81;;;16.25;55.40
78773;BME280;68111;44.728;11.290;2023-11-21T14:24:27;100687.47;;;16.25;55.35
78773;BME280;68111;44.728;11.290;2023-11-21T14:26:56;100692.81;;;16.25;55.49
78773;BME280;68111;44.728;11.290;2023-11-21T14:29:41;100697.31;;;16.23;55.37
78773;BME280;68111;44.728;11.290;2023-11-21T14:32:11;100685.78;;;16.21;55.33
78773;BME280;68111;44.728;11.290;2023-11-21T14:34:39;100696.47;;;16.21;55.60
78773;BME280;68111;44.728;11.290;2023-11-21T14:37:07;100700.03;;;16.20;55.33
78773;BME280;68111;44.728;11.290;2023-11-21T14:39:34;100702.75;;;16.18;55.51
78773;BME280;68111;44.728;11.290;2023-11-21T14:42:07;100698.34;;;16.16;55.59
78773;BME280;68111;44.728;11.290;2023-11-21T14:44:37;100699.31;;;16.13;55.43
78773;BME280;68111;44.728;11.290;2023-11-21T14:47:08;100696.75;;;16.07;55.63
78773;BME280;68111;44.728;11.290;2023-11-21T14:49:42;100692.41;;;16.03;55.82
78773;BME280;68111;44.728;11.290;2023-11-21T14:52:50;100705.78;;;16.02;55.67
78773;BME280;68111;44.728;11.290;2023-11-21T14:55:26;100696.00;;;16.00;56.06
78773;BME280;68111;44.728;11.290;2023-11-21T14:57:58;100695.16;;;15.98;56.09
78773;BME280;68111;44.728;11.290;2023-11-21T15:00:29;100687.22;;;15.95;56.29
78773;BME280;68111;44.728;11.290;2023-11-21T15:03:07;100680.16;;;15.94;56.36
78773;BME280;68111;44.728;11.290;2023-11-21T15:05:37;100683.72;;;15.93;56.41
78773;BME280;68111;44.728;11.290;2023-11-21T15:08:06;100689.06;;;15.93;56.48
78773;BME280;68111;44.728;11.290;2023-11-21T15:10:54;100679.31;;;15.92;56.74
78773;BME280;68111;44.728;11.290;2023-11-21T15:13:22;100676.63;;;15.92;56.69
78773;BME280;68111;44.728;11.290;2023-11-21T15:15:50;100674.78;;;15.96;56.38
78773;BME280;68111;44.728;11.290;2023-11-21T15:18:18;100677.41;;;15.97;56.47
78773;BME280;68111;44.728;11.290;2023-11-21T15:20:46;100662.38;;;15.95;56.47
78773;BME280;68111;44.728;11.290;2023-11-21T15:23:13;100671.28;;;15.94;56.60
78773;BME280;68111;44.728;11.290;2023-11-21T15:25:41;100674.88;;;15.91;56.65
78773;BME280;68111;44.728;11.290;2023-11-21T15:28:08;100682.00;;;15.91;56.60
78773;BME280;68111;44.728;11.290;2023-11-21T15:30:35;100686.44;;;15.90;56.67
78773;BME280;68111;44.728;11.290;2023-11-21T15:33:02;100688.22;;;15.91;56.57
78773;BME280;68111;44.728;11.290;2023-11-21T15:35:30;100689.06;;;15.93;56.56
78773;BME280;68111;44.728;11.290;2023-11-21T15:37:59;100693.47;;;15.94;56.68
78773;BME280;68111;44.728;11.290;2023-11-21T15:40:26;100691.66;;;15.96;56.72
78773;BME280;68111;44.728;11.290;2023-11-21T15:42:54;100708.53;;;15.97;56.65
78773;BME280;68111;44.728;11.290;2023-11-21T15:45:21;100714.78;;;15.96;56.57
78773;BME280;68111;44.728;11.290;2023-11-21T15:47:51;100725.47;;;15.94;56.45
78773;BME280;68111;44.728;11.290;2023-11-21T15:50:19;100732.66;;;15.91;56.75
78773;BME280;68111;44.728;11.290;2023-11-21T15:52:46;100738.06;;;15.86;56.75
78773;BME280;68111;44.728;11.290;2023-11-21T15:55:26;100734.63;;;15.81;57.14
78773;BME280;68111;44.728;11.290;2023-11-21T15:57:53;100732.94;;;15.77;57.09
78773;BME280;68111;44.728;11.290;2023-11-21T16:00:20;100727.69;;;15.73;57.24
78773;BME280;68111;44.728;11.290;2023-11-21T16:02:49;100720.63;;;15.70;57.35
78773;BME280;68111;44.728;11.290;2023-11-21T16:05:16;100723.28;;;15.70;57.28
78773;BME280;68111;44.728;11.290;2023-11-21T16:07:44;100705.50;;;15.71;57.46
78773;BME280;68111;44.728;11.290;2023-11-21T16:10:11;100706.41;;;15.71;57.38
78773;BME280;68111;44.728;11.290;2023-11-21T16:12:42;100704.63;;;15.70;57.70
78773;BME280;68111;44.728;11.290;2023-11-21T16:15:09;100693.00;;;15.74;57.34
78773;BME280;68111;44.728;11.290;2023-11-21T16:17:38;100688.53;;;15.76;57.60
78773;BME280;68111;44.728;11.290;2023-11-21T16:20:05;100683.19;;;15.76;57.41
78773;BME280;68111;44.728;11.290;2023-11-21T16:22:39;100676.94;;;15.77;57.43
78773;BME280;68111;44.728;11.290;2023-11-21T16:25:08;100679.63;;;15.77;57.44
78773;BME280;68111;44.728;11.290;2023-11-21T16:27:39;100691.97;;;15.81;57.59
78773;BME280;68111;44.728;11.290;2023-11-21T16:30:07;100686.72;;;15.78;57.73
78773;BME280;68111;44.728;11.290;2023-11-21T16:32:37;100699.19;;;15.76;57.56
78773;BME280;68111;44.728;11.290;2023-11-21T16:35:04;100690.47;;;15.68;57.72
78773;BME280;68111;44.728;11.290;2023-11-21T16:37:31;100705.72;;;15.58;58.06
78773;BME280;68111;44.728;11.290;2023-11-21T16:39:58;100706.78;;;15.47;58.58
78773;BME280;68111;44.728;11.290;2023-11-21T16:42:26;100710.44;;;15.43;58.76
78773;BME280;68111;44.728;11.290;2023-11-21T16:44:57;100715.88;;;15.36;58.84
78773;BME280;68111;44.728;11.290;2023-11-21T16:47:24;100727.47;;;15.32;58.79
78773;BME280;68111;44.728;11.290;2023-11-21T16:49:55;100724.00;;;15.29;59.07
78773;BME280;68111;44.728;11.290;2023-11-21T16:52:23;100729.38;;;15.26;59.28
78773;BME280;68111;44.728;11.290;2023-11-21T16:54:50;100730.34;;;15.20;59.43
78773;BME280;68111;44.728;11.290;2023-11-21T16:57:17;100714.44;;;15.17;60.45
78773;BME280;68111;44.728;11.290;2023-11-21T16:59:44;100711.59;;;15.26;60.89
78773;BME280;68111;44.728;11.290;2023-11-21T17:02:11;100715.88;;;15.36;60.79
78773;BME280;68111;44.728;11.290;2023-11-21T17:04:41;100713.88;;;15.48;60.67
78773;BME280;68111;44.728;11.290;2023-11-21T17:07:09;100714.63;;;15.56;60.66
78773;BME280;68111;44.728;11.290;2023-11-21T17:09:39;100721.66;;;15.63;60.65
78773;BME280;68111;44.728;11.290;2023-11-21T17:12:06;100724.19;;;15.69;60.50
78773;BME280;68111;44.728;11.290;2023-11-21T17:14:32;100717.88;;;15.75;60.53
78773;BME280;68111;44.728;11.290;2023-11-21T17:17:00;100719.56;;;15.79;60.78
78773;BME280;68111;44.728;11.290;2023-11-21T17:19:27;100716.84;;;15.82;60.23
78773;BME280;68111;44.728;11.290;2023-11-21T17:21:58;100722.03;;;15.89;59.88
78773;BME280;68111;44.728;11.290;2023-11-21T17:24:24;100721.97;;;15.92;60.07
78773;BME280;68111;44.728;11.290;2023-11-21T17:26:52;100710.38;;;15.93;60.09
78773;BME280;68111;44.728;11.290;2023-11-21T17:29:19;100707.66;;;15.96;60.16
78773;BME280;68111;44.728;11.290;2023-11-21T17:31:46;100705.84;;;15.98;59.97
78773;BME280;68111;44.728;11.290;2023-11-21T17:34:13;100714.69;;;16.00;60.02
78773;BME280;68111;44.728;11.290;2023-11-21T17:36:41;100716.44;;;16.02;59.97
78773;BME280;68111;44.728;11.290;2023-11-21T17:39:07;100726.19;;;16.03;59.65
78773;BME280;68111;44.728;11.290;2023-11-21T17:41:37;100730.56;;;16.07;59.90
78773;BME280;68111;44.728;11.290;2023-11-21T17:44:04;100746.56;;;16.07;59.76
78773;BME280;68111;44.728;11.290;2023-11-21T17:46:32;100742.97;;;16.08;59.57
78773;BME280;68111;44.728;11.290;2023-11-21T17:48:59;100747.44;;;16.07;59.66
78773;BME280;68111;44.728;11.290;2023-11-21T17:51:26;100753.66;;;16.08;59.45
78773;BME280;68111;44.728;11.290;2023-11-21T17:53:53;100741.16;;;16.10;59.40
78773;BME280;68111;44.728;11.290;2023-11-21T17:56:24;100743.78;;;16.11;59.42
78773;BME280;68111;44.728;11.290;2023-11-21T17:58:51;100740.22;;;16.12;59.31
78773;BME280;68111;44.728;11.290;2023-11-21T18:01:20;100735.75;;;16.13;59.06
78773;BME280;68111;44.728;11.290;2023-11-21T18:03:47;100734.00;;;16.12;58.74
78773;BME280;68111;44.728;11.290;2023-11-21T18:06:15;100748.25;;;16.11;58.84
78773;BME280;68111;44.728;11.290;2023-11-21T18:08:42;100753.56;;;16.11;58.77
78773;BME280;68111;44.728;11.290;2023-11-21T18:11:09;100749.13;;;16.11;59.00
78773;BME280;68111;44.728;11.290;2023-11-21T18:13:36;100756.22;;;16.12;58.81
78773;BME280;68111;44.728;11.290;2023-11-21T18:16:03;100760.59;;;16.15;58.65
78773;BME280;68111;44.728;11.290;2023-11-21T18:18:30;100761.50;;;16.15;58.47
78773;BME280;68111;44.728;11.290;2023-11-21T18:20:56;100778.34;;;16.17;58.38
78773;BME280;68111;44.728;11.290;2023-11-21T18:23:23;100783.66;;;16.17;58.38
78773;BME280;68111;44.728;11.290;2023-11-21T18:25:50;100784.56;;;16.18;58.04
78773;BME280;68111;44.728;11.290;2023-11-21T18:28:17;100788.97;;;16.19;58.13
78773;BME280;68111;44.728;11.290;2023-11-21T18:30:44;100789.84;;;16.19;58.00
78773;BME280;68111;44.728;11.290;2023-11-21T18:33:11;100794.31;;;16.19;58.28
78773;BME280;68111;44.728;11.290;2023-11-21T18:35:38;100800.50;;;16.21;57.72
78773;BME280;68111;44.728;11.290;2023-11-21T18:38:05;100802.28;;;16.20;57.81
78773;BME280;68111;44.728;11.290;2023-11-21T18:40:32;100802.28;;;16.20;57.72
78773;BME280;68111;44.728;11.290;2023-11-21T18:42:59;100805.78;;;16.22;57.41
78773;BME280;68111;44.728;11.290;2023-11-21T18:45:27;100804.03;;;16.21;57.41
78773;BME280;68111;44.728;11.290;2023-11-21T18:47:54;100800.47;;;16.22;57.21
78773;BME280;68111;44.728;11.290;2023-11-21T18:50:21;100801.34;;;16.23;57.18
78773;BME280;68111;44.728;11.290;2023-11-21T18:52:49;100793.31;;;16.24;57.26
78773;BME280;68111;44.728;11.290;2023-11-21T18:55:16;100792.44;;;16.24;57.18
78773;BME280;68111;44.728;11.290;2023-11-21T18:57:43;100793.31;;;16.24;57.09
78773;BME280;68111;44.728;11.290;2023-11-21T19:00:11;100795.06;;;16.25;56.90
78773;BME280;68111;44.728;11.290;2023-11-21T19:02:39;100800.41;;;16.25;57.12
78773;BME280;68111;44.728;11.290;2023-11-21T19:05:07;100796.84;;;16.25;57.08
78773;BME280;68111;44.728;11.290;2023-11-21T19:07:34;100788.84;;;16.25;56.94
78773;BME280;68111;44.728;11.290;2023-11-21T19:10:03;100797.69;;;16.27;57.00
78773;BME280;68111;44.728;11.290;2023-11-21T19:12:32;100807.47;;;16.28;56.94
78773;BME280;68111;44.728;11.290;2023-11-21T19:15:03;100809.22;;;16.29;57.04
78773;BME280;68111;44.728;11.290;2023-11-21T19:17:30;100824.31;;;16.30;56.83
78773;BME280;68111;44.728;11.290;2023-11-21T19:19:59;100828.72;;;16.32;56.76
78773;BME280;68111;44.728;11.290;2023-11-21T19:22:26;100826.00;;;16.34;56.98
78773;BME280;68111;44.728;11.290;2023-11-21T19:24:53;100853.53;;;16.36;57.07
78773;BME280;68111;44.728;11.290;2023-11-21T19:27:20;100836.66;;;16.36;56.98
78773;BME280;68111;44.728;11.290;2023-11-21T19:29:47;100843.78;;;16.35;57.00
78773;BME280;68111;44.728;11.290;2023-11-21T19:32:15;100849.09;;;16.35;57.01
78773;BME280;68111;44.728;11.290;2023-11-21T19:34:42;100861.53;;;16.36;56.99
78773;BME280;68111;44.728;11.290;2023-11-21T19:37:09;100850.00;;;16.36;57.22
78773;BME280;68111;44.728;11.290;2023-11-21T19:39:35;100856.19;;;16.36;57.00
78773;BME280;68111;44.728;11.290;2023-11-21T19:42:02;100855.28;;;16.37;56.74
78773;BME280;68111;44.728;11.290;2023-11-21T19:44:29;100862.41;;;16.37;56.92
78773;BME280;68111;44.728;11.290;2023-11-21T19:46:57;100858.00;;;16.36;56.60
78773;BME280;68111;44.728;11.290;2023-11-21T19:49:25;100867.78;;;16.35;56.38
78773;BME280;68111;44.728;11.290;2023-11-21T19:51:52;100863.31;;;16.36;56.41
78773;BME280;68111;44.728;11.290;2023-11-21T19:54:19;100861.53;;;16.36;56.42
78773;BME280;68111;44.728;11.290;2023-11-21T19:56:46;100873.97;;;16.37;56.38
78773;BME280;68111;44.728;11.290;2023-11-21T19:59:12;100874.88;;;16.36;56.38
78773;BME280;68111;44.728;11.290;2023-11-21T20:01:41;100870.41;;;16.37;56.29
78773;BME280;68111;44.728;11.290;2023-11-21T20:04:09;100875.78;;;16.35;56.09
78773;BME280;68111;44.728;11.290;2023-11-21T20:06:40;100875.78;;;16.35;56.21
78773;BME280;68111;44.728;11.290;2023-11-21T20:09:17;100879.38;;;16.34;56.08
78773;BME280;68111;44.728;11.290;2023-11-21T20:11:43;100870.44;;;16.35;56.13
78773;BME280;68111;44.728;11.290;2023-11-21T20:14:13;100882.03;;;16.34;56.17
78773;BME280;68111;44.728;11.290;2023-11-21T20:16:40;100882.03;;;16.34;56.13
78773;BME280;68111;44.728;11.290;2023-11-21T20:19:07;100884.69;;;16.34;55.94
78773;BME280;68111;44.728;11.290;2023-11-21T20:21:34;100889.16;;;16.33;55.85
78773;BME280;68111;44.728;11.290;2023-11-21T20:24:01;100882.94;;;16.33;55.70
78773;BME280;68111;44.728;11.290;2023-11-21T22:07:56;100931.06;;;16.27;51.89
